Time;durP1;ratioP1;P1;durP2;ratioP2;P2;SDS_P1;SDS_P2;PMS_P1;PMS_P2;Temp;Humidity;BMP_temperature;BMP_pressure;BME280_temperature;BME280_humidity;BME280_pressure;Samples;Min_cycle;Max_cycle;Signal;HPM_P1;HPM_P2
2023/04/18 00:00:57;;;;;;;47.40;24.33;;;;;;;11.33;100.00;98943.03;5094857;28;20031;-70
2023/04/18 00:03:23;;;;;;;37.97;25.42;;;;;;;11.36;100.00;98942.34;5100878;28;20479;-70
2023/04/18 00:05:48;;;;;;;38.60;25.38;;;;;;;11.43;100.00;98938.13;5091251;28;20031;-70
2023/04/18 00:08:14;;;;;;;45.67;26.00;;;;;;;11.36;100.00;98933.94;5090828;28;20020;-70
2023/04/18 00:10:40;;;;;;;35.90;23.95;;;;;;;11.32;100.00;98932.19;5077523;28;20505;-70
2023/04/18 00:13:06;;;;;;;35.97;24.13;;;;;;;11.37;100.00;98932.78;5102582;27;20048;-70
2023/04/18 00:15:34;;;;;;;38.20;22.33;;;;;;;11.30;100.00;98931.75;5111786;28;20470;-70
2023/04/18 00:18:02;;;;;;;35.47;23.05;;;;;;;11.22;100.00;98936.28;5111049;28;20487;-71
2023/04/18 00:20:28;;;;;;;38.80;23.60;;;;;;;11.30;100.00;98945.75;5112987;28;20458;-70
2023/04/18 00:22:54;;;;;;;45.00;24.00;;;;;;;11.28;100.00;98943.28;5094082;28;20062;-70
2023/04/18 00:25:20;;;;;;;34.30;23.13;;;;;;;11.30;100.00;98938.16;5097219;27;20509;-70
2023/04/18 00:27:46;;;;;;;30.90;22.27;;;;;;;11.15;100.00;98939.69;5092117;28;20028;-70
2023/04/18 00:30:11;;;;;;;38.85;23.77;;;;;;;11.21;100.00;98935.47;5110942;28;20035;-70
2023/04/18 00:32:37;;;;;;;35.55;24.17;;;;;;;11.10;100.00;98928.72;5111956;28;20055;-70
2023/04/18 00:35:03;;;;;;;34.88;23.85;;;;;;;11.12;100.00;98926.38;5112365;28;20110;-70
2023/04/18 00:37:29;;;;;;;34.80;23.73;;;;;;;11.08;100.00;98931.06;5093978;28;20030;-70
2023/04/18 00:39:54;;;;;;;36.88;23.48;;;;;;;11.05;100.00;98931.78;5106614;28;20107;-70
2023/04/18 00:42:21;;;;;;;40.58;23.45;;;;;;;11.07;100.00;98924.66;5093209;28;20039;-70
2023/04/18 00:44:47;;;;;;;38.67;24.10;;;;;;;11.17;100.00;98926.16;5093871;28;20471;-71
2023/04/18 00:47:15;;;;;;;34.78;24.08;;;;;;;11.09;100.00;98933.50;5112031;28;20124;-70
2023/04/18 00:49:41;;;;;;;32.83;23.15;;;;;;;11.15;100.00;98925.69;5112113;28;20054;-70
2023/04/18 00:52:07;;;;;;;34.90;23.25;;;;;;;11.08;100.00;98931.06;5111928;28;20478;-70
2023/04/18 00:54:33;;;;;;;32.08;22.15;;;;;;;10.93;100.00;98925.03;5106798;28;20112;-70
2023/04/18 00:56:58;;;;;;;39.20;24.23;;;;;;;10.89;100.00;98923.28;5091451;28;20034;-70
2023/04/18 00:59:24;;;;;;;36.95;23.67;;;;;;;10.99;100.00;98922.81;5098488;28;20028;-70
2023/04/18 01:01:49;;;;;;;37.15;22.77;;;;;;;10.99;100.00;98911.63;5112092;28;20034;-70
2023/04/18 01:04:15;;;;;;;35.90;23.08;;;;;;;11.08;100.00;98934.66;5108694;28;20030;-70
2023/04/18 01:06:42;;;;;;;43.08;23.60;;;;;;;11.07;100.00;98924.66;5091676;28;20024;-70
2023/04/18 01:09:09;;;;;;;38.17;23.67;;;;;;;11.06;100.00;98927.81;5095726;28;20122;-70
2023/04/18 01:11:34;;;;;;;33.92;22.63;;;;;;;11.04;100.00;98930.13;5090086;28;20040;-70
2023/04/18 01:14:02;;;;;;;37.45;23.88;;;;;;;10.86;100.00;98935.16;5091155;28;20032;-70
2023/04/18 01:16:28;;;;;;;42.38;22.50;;;;;;;10.93;100.00;98932.59;5092112;28;20046;-70
2023/04/18 01:18:55;;;;;;;41.75;22.48;;;;;;;10.89;100.00;98934.47;5095233;28;20030;-70
2023/04/18 01:21:21;;;;;;;46.03;24.58;;;;;;;10.79;100.00;98936.56;5111545;28;20397;-70
2023/04/18 01:23:51;;;;;;;37.95;22.67;;;;;;;10.70;100.00;98938.66;5107192;28;20027;-70
2023/04/18 01:26:17;;;;;;;33.17;21.25;;;;;;;10.67;100.00;98931.75;5099354;28;20032;-70
2023/04/18 01:28:42;;;;;;;35.75;23.00;;;;;;;10.78;100.00;98934.09;5094236;28;20035;-70
2023/04/18 01:31:08;;;;;;;36.05;24.00;;;;;;;10.78;100.00;98922.91;5095438;28;20609;-70
2023/04/18 01:33:33;;;;;;;35.83;23.23;;;;;;;10.87;100.00;98928.41;5095286;28;20027;-70
2023/04/18 01:35:58;;;;;;;34.95;23.83;;;;;;;10.86;100.00;98927.59;5097411;28;20035;-70
2023/04/18 01:38:24;;;;;;;38.80;24.45;;;;;;;10.82;100.00;98926.66;5097333;28;20478;-70
2023/04/18 01:40:49;;;;;;;41.42;23.70;;;;;;;10.76;100.00;98931.69;5115173;28;20023;-70
2023/04/18 01:43:15;;;;;;;35.20;24.52;;;;;;;10.82;100.00;98926.66;5083766;28;20028;-70
2023/04/18 01:45:40;;;;;;;34.58;23.13;;;;;;;10.75;100.00;98932.84;5095081;28;20429;-70
2023/04/18 01:48:06;;;;;;;36.83;23.00;;;;;;;10.75;100.00;98932.00;5094963;28;20032;-70
2023/04/18 01:50:31;;;;;;;38.65;23.92;;;;;;;10.84;100.00;98932.72;5095057;28;20027;-70
2023/04/18 01:52:57;;;;;;;37.28;24.40;;;;;;;10.72;100.00;98938.31;5097073;28;20027;-70
2023/04/18 01:55:22;;;;;;;41.83;24.35;;;;;;;10.65;100.00;98924.91;5096732;28;20088;-70
2023/04/18 01:57:49;;;;;;;34.85;24.50;;;;;;;10.77;100.00;98938.91;5093014;28;20024;-70
2023/04/18 02:00:15;;;;;;;35.55;23.63;;;;;;;10.66;100.00;98932.13;5094306;28;20033;-70
2023/04/18 02:02:41;;;;;;;42.55;23.63;;;;;;;10.70;100.00;98935.84;5114308;28;20440;-70
2023/04/18 02:05:07;;;;;;;42.38;24.27;;;;;;;10.76;100.00;98934.47;5115510;28;20458;-70
2023/04/18 02:07:32;;;;;;;39.05;24.33;;;;;;;10.81;100.00;98939.81;5115322;28;20072;-70
2023/04/18 02:09:58;;;;;;;40.50;26.02;;;;;;;10.78;100.00;98931.31;5114599;28;20436;-70
2023/04/18 02:12:23;;;;;;;45.55;28.60;;;;;;;10.62;100.00;98936.81;5103751;28;20044;-70
2023/04/18 02:14:52;;;;;;;46.10;26.63;;;;;;;10.77;100.00;98944.50;5093440;28;20081;-70
2023/04/18 02:17:22;;;;;;;41.67;26.58;;;;;;;10.86;100.00;98937.94;5096611;28;20019;-70
2023/04/18 02:19:48;;;;;;;46.33;27.07;;;;;;;10.79;100.00;98933.75;5097171;28;20019;-70
2023/04/18 02:22:13;;;;;;;43.10;26.05;;;;;;;10.70;100.00;98938.66;5094513;28;20016;-70
2023/04/18 02:24:39;;;;;;;48.30;28.27;;;;;;;10.77;100.00;98952.06;5094754;28;20483;-70
2023/04/18 02:27:04;;;;;;;52.90;28.88;;;;;;;10.56;100.00;98935.38;5104065;27;20424;-70
2023/04/18 02:29:30;;;;;;;44.30;26.60;;;;;;;10.61;100.00;98929.56;5114797;28;20482;-70
2023/04/18 02:31:57;;;;;;;43.47;26.75;;;;;;;10.55;100.00;98928.16;5114817;28;20378;-70
2023/04/18 02:34:22;;;;;;;46.97;28.50;;;;;;;10.59;100.00;98932.72;5114357;28;20042;-70
2023/04/18 02:36:48;;;;;;;48.70;29.13;;;;;;;10.60;100.00;98934.34;5101567;28;20028;-70
2023/04/18 02:39:13;;;;;;;52.30;29.67;;;;;;;10.58;100.00;98931.09;5094189;28;20016;-70
2023/04/18 02:41:38;;;;;;;46.90;27.08;;;;;;;10.66;100.00;98940.53;5099570;28;20028;-70
2023/04/18 02:44:05;;;;;;;44.85;27.05;;;;;;;10.66;100.00;98940.53;5112331;28;20081;-70
2023/04/18 02:46:31;;;;;;;49.25;28.65;;;;;;;10.65;100.00;98948.09;5114428;28;20020;-70
2023/04/18 02:48:57;;;;;;;43.90;26.17;;;;;;;10.64;100.00;98952.06;5096031;28;20554;-70
2023/04/18 02:51:22;;;;;;;50.45;27.15;;;;;;;10.60;100.00;98953.09;5108306;28;20111;-70
2023/04/18 02:53:47;;;;;;;47.83;28.63;;;;;;;10.51;100.00;98948.44;5093985;28;20020;-70
2023/04/18 02:56:16;;;;;;;47.63;28.35;;;;;;;10.39;100.00;98949.19;5093746;28;20069;-70
2023/04/18 02:58:41;;;;;;;49.25;28.67;;;;;;;10.33;100.00;98960.94;5095060;28;20077;-70
2023/04/18 03:01:07;;;;;;;46.15;27.55;;;;;;;10.32;100.00;98957.34;5114106;28;20012;-70
2023/04/18 03:03:32;;;;;;;47.70;26.23;;;;;;;10.30;100.00;98970.81;5095706;28;20528;-70
2023/04/18 03:05:59;;;;;;;44.28;25.67;;;;;;;10.25;100.00;98959.88;5113299;28;20028;-70
2023/04/18 03:08:24;;;;;;;43.47;22.70;;;;;;;10.14;100.00;98967.06;5108318;28;20028;-70
2023/04/18 03:10:50;;;;;;;38.10;21.33;;;;;;;10.07;100.00;98968.44;5093818;28;20024;-70
2023/04/18 03:13:16;;;;;;;32.35;18.88;;;;;;;10.20;100.00;98963.72;5093799;28;20048;-70
2023/04/18 03:15:41;;;;;;;30.48;19.58;;;;;;;10.26;100.00;98964.31;5093745;28;20020;-70
2023/04/18 03:18:07;;;;;;;31.23;18.73;;;;;;;10.23;100.00;98976.97;5093608;28;20027;-70
2023/04/18 03:20:33;;;;;;;29.48;17.95;;;;;;;10.13;100.00;98971.03;5106831;28;20047;-70
2023/04/18 03:22:58;;;;;;;29.83;17.40;;;;;;;10.18;100.00;98968.00;5095529;28;20478;-71
2023/04/18 03:25:24;;;;;;;29.38;17.77;;;;;;;10.23;100.00;98965.00;5102678;27;20035;-70
2023/04/18 03:27:50;;;;;;;31.38;17.35;;;;;;;10.33;100.00;98972.97;5086996;28;20505;-70
2023/04/18 03:30:16;;;;;;;29.85;17.63;;;;;;;10.34;100.00;98968.16;5093210;28;20024;-70
2023/04/18 03:32:42;;;;;;;28.52;17.33;;;;;;;10.34;100.00;98970.97;5075083;28;20085;-70
2023/04/18 03:35:07;;;;;;;33.65;18.63;;;;;;;10.39;100.00;98970.75;5093187;28;20024;-71
2023/04/18 03:37:33;;;;;;;25.65;17.20;;;;;;;10.27;100.00;98970.72;5106541;28;20493;-71
2023/04/18 03:39:58;;;;;;;30.33;16.70;;;;;;;10.19;100.00;98980.81;5113393;28;20035;-70
2023/04/18 03:42:24;;;;;;;28.20;18.38;;;;;;;10.23;100.00;98982.56;5111059;28;20120;-70
2023/04/18 03:44:49;;;;;;;31.30;18.30;;;;;;;10.33;100.00;98980.50;5112802;28;20441;-70
2023/04/18 03:47:15;;;;;;;28.98;19.15;;;;;;;10.34;100.00;98973.75;5094844;28;20020;-70
2023/04/18 03:49:41;;;;;;;30.95;19.58;;;;;;;10.33;100.00;98980.50;5094892;28;20076;-70
2023/04/18 03:52:06;;;;;;;35.35;19.15;;;;;;;10.16;100.00;98973.94;5094204;28;20023;-70
2023/04/18 03:54:32;;;;;;;34.00;20.40;;;;;;;10.15;100.00;98982.66;5112988;28;20016;-71
2023/04/18 03:56:58;;;;;;;33.47;18.20;;;;;;;10.30;100.00;98984.00;5094712;28;20024;-70
2023/04/18 03:59:24;;;;;;;35.13;18.30;;;;;;;10.24;100.00;98977.81;5105340;28;20027;-70
2023/04/18 04:01:49;;;;;;;31.23;18.10;;;;;;;10.41;100.00;98988.03;5112204;28;20031;-70
2023/04/18 04:04:15;;;;;;;33.00;19.35;;;;;;;10.33;100.00;98980.50;5094715;28;20027;-70
2023/04/18 04:06:41;;;;;;;38.85;19.80;;;;;;;10.28;100.00;98994.72;5094595;28;20028;-70
2023/04/18 04:09:06;;;;;;;40.90;21.70;;;;;;;10.25;100.00;98985.03;5112703;28;20031;-70
2023/04/18 04:11:32;;;;;;;33.53;19.58;;;;;;;10.19;100.00;98994.78;5091319;28;20039;-70
2023/04/18 04:13:57;;;;;;;36.40;20.85;;;;;;;10.27;100.00;98987.50;5093239;28;20031;-70
2023/04/18 04:16:23;;;;;;;39.42;19.50;;;;;;;10.28;100.00;98977.94;5112199;28;20106;-71
2023/04/18 04:18:48;;;;;;;43.63;20.88;;;;;;;10.58;100.00;98997.38;5112542;28;20031;-70
2023/04/18 04:21:14;;;;;;;34.05;18.70;;;;;;;10.47;100.00;98989.44;5112544;28;20024;-71
2023/04/18 04:23:45;;;;;;;35.58;19.45;;;;;;;10.59;100.00;98993.41;5094258;28;20047;-70
2023/04/18 04:26:10;;;;;;;;;;;;;;;10.74;99.52;99001.16;5094241;28;20484;-70
2023/04/18 04:28:36;;;;;;;37.28;18.00;;;;;;;10.62;99.22;98998.34;5112446;28;19990;-70
2023/04/18 04:31:04;;;;;;;32.75;17.95;;;;;;;10.46;99.75;99001.78;5100285;28;20122;-70
2023/04/18 04:33:32;;;;;;;31.38;19.23;;;;;;;10.45;100.00;99011.31;5093714;28;20035;-70
2023/04/18 04:35:58;;;;;;;30.65;17.50;;;;;;;10.51;100.00;99003.53;5111727;28;20032;-70
2023/04/18 04:38:24;;;;;;;30.65;18.58;;;;;;;10.44;100.00;99015.28;5106766;28;20077;-70
2023/04/18 04:40:50;;;;;;;35.63;19.92;;;;;;;10.42;100.00;99012.03;5105993;28;20417;-70
2023/04/18 04:43:16;;;;;;;37.35;18.65;;;;;;;10.51;100.00;99023.94;5112131;28;20478;-70
2023/04/18 04:45:42;;;;;;;40.08;20.85;;;;;;;10.47;100.00;99024.97;5098449;28;20036;-70
2023/04/18 04:48:08;;;;;;;36.40;20.00;;;;;;;10.42;99.81;99028.81;5093601;28;20111;-70
2023/04/18 04:50:36;;;;;;;41.75;21.55;;;;;;;10.24;100.00;99025.34;5078702;28;20032;-70
2023/04/18 04:53:01;;;;;;;46.60;23.38;;;;;;;10.06;100.00;99022.69;5106385;28;20027;-70
2023/04/18 04:55:27;;;;;;;39.95;21.40;;;;;;;10.15;100.00;99033.81;5092103;28;20016;-69
2023/04/18 04:57:56;;;;;;;41.53;21.63;;;;;;;10.17;100.00;99031.47;5097194;28;20034;-68
2023/04/18 05:00:21;;;;;;;37.30;21.63;;;;;;;10.26;100.00;99034.19;5098244;27;20499;-67
2023/04/18 05:02:47;;;;;;;39.20;21.73;;;;;;;10.18;100.00;99040.66;5081412;28;20019;-70
2023/04/18 05:05:13;;;;;;;41.85;21.42;;;;;;;10.10;100.00;99034.00;5083415;28;20070;-68
2023/04/18 05:07:38;;;;;;;40.67;22.55;;;;;;;10.19;100.00;99040.34;5097405;28;20035;-69
2023/04/18 05:10:04;;;;;;;41.58;20.52;;;;;;;10.14;100.00;99040.56;5085872;28;20030;-69
2023/04/18 05:12:30;;;;;;;45.50;23.13;;;;;;;10.29;100.00;99041.88;5076120;28;20516;-71
2023/04/18 05:14:56;;;;;;;44.28;22.85;;;;;;;10.19;100.00;99028.31;5088395;28;20066;-72
2023/04/18 05:17:21;;;;;;;42.03;22.98;;;;;;;10.30;100.00;99037.13;5099805;28;20154;-69
2023/04/18 05:19:47;;;;;;;40.85;22.95;;;;;;;10.49;100.00;99031.84;5096474;28;20036;-72
2023/04/18 05:22:12;;;;;;;37.75;21.20;;;;;;;10.43;100.00;99040.78;5096123;28;20023;-70
2023/04/18 05:24:38;;;;;;;43.15;22.90;;;;;;;10.42;100.00;99039.16;5091338;28;20032;-69
2023/04/18 05:27:04;;;;;;;48.42;23.42;;;;;;;10.46;100.00;99046.50;5096714;28;20414;-69
2023/04/18 05:29:30;;;;;;;52.05;24.48;;;;;;;10.39;100.00;99043.44;5093026;28;20028;-70
2023/04/18 05:31:55;;;;;;;52.03;25.80;;;;;;;10.43;100.00;99046.38;5098697;28;20384;-72
2023/04/18 05:34:21;;;;;;;47.90;25.42;;;;;;;10.52;100.00;99041.53;5095748;28;20059;-69
2023/04/18 05:36:46;;;;;;;47.88;26.10;;;;;;;10.44;100.00;99037.66;5106360;28;20039;-70
2023/04/18 05:39:12;;;;;;;43.47;23.63;;;;;;;10.58;100.00;99047.72;5092793;28;20054;-73
2023/04/18 05:41:37;;;;;;;42.25;23.17;;;;;;;10.38;100.00;99041.81;5092588;28;20032;-70
2023/04/18 05:44:03;;;;;;;48.95;26.52;;;;;;;10.33;100.00;99056.81;5094903;28;20032;-72
2023/04/18 05:46:29;;;;;;;48.65;25.80;;;;;;;10.53;100.00;99043.16;5099139;28;20541;-73
2023/04/18 05:48:55;;;;;;;42.75;26.27;;;;;;;10.59;100.00;99049.34;5083002;28;20100;-77
2023/04/18 05:51:21;;;;;;;50.53;27.20;;;;;;;10.62;100.00;99043.06;5070826;28;20123;-71
2023/04/18 05:53:46;;;;;;;52.78;27.63;;;;;;;10.61;100.00;99049.81;5090064;28;20115;-74
2023/04/18 05:56:12;;;;;;;54.83;27.73;;;;;;;10.70;100.00;99044.16;5089264;28;20039;-76
2023/04/18 05:58:37;;;;;;;54.75;27.15;;;;;;;10.60;100.00;99045.38;5093112;28;20549;-78
2023/04/18 06:01:03;;;;;;;56.83;27.98;;;;;;;10.55;100.00;99037.22;5076356;28;20023;-75
2023/04/18 06:03:28;;;;;;;42.85;24.98;;;;;;;10.71;100.00;99045.78;5093229;28;20028;-72
2023/04/18 06:05:54;;;;;;;40.38;25.27;;;;;;;10.70;100.00;99053.34;5099112;28;20031;-74
2023/04/18 06:08:19;;;;;;;49.33;31.98;;;;;;;10.74;100.00;99056.25;5103611;28;20088;-70
2023/04/18 06:10:44;;;;;;;44.08;26.23;;;;;;;10.81;100.00;99057.31;5094457;28;20028;-69
2023/04/18 06:13:10;;;;;;;42.75;25.20;;;;;;;10.92;100.00;99057.72;5088597;28;20063;-71
2023/04/18 06:15:36;;;;;;;45.83;26.02;;;;;;;10.90;100.00;99056.41;5093383;28;20028;-75
2023/04/18 06:18:01;;;;;;;45.28;26.60;;;;;;;10.96;100.00;99052.22;5096341;28;20036;-73
2023/04/18 06:20:27;;;;;;;47.97;26.08;;;;;;;10.99;100.00;99051.53;5107984;28;20031;-72
2023/04/18 06:22:52;;;;;;;40.90;25.00;;;;;;;11.12;100.00;99054.34;5102932;27;20026;-74
2023/04/18 06:25:18;;;;;;;50.30;28.95;;;;;;;11.15;99.28;99050.84;5105363;28;20080;-74
2023/04/18 06:27:43;;;;;;;45.42;27.08;;;;;;;11.13;99.53;99062.38;5105775;28;20102;-72
2023/04/18 06:30:09;;;;;;;45.40;26.65;;;;;;;11.18;99.14;99048.16;5088143;28;20028;-77
2023/04/18 06:32:34;;;;;;;48.03;26.10;;;;;;;11.26;98.40;99054.81;5102337;28;20084;-75
2023/04/18 06:35:00;;;;;;;42.35;25.48;;;;;;;11.29;98.23;99045.69;5106810;28;20486;-78
2023/04/18 06:37:25;;;;;;;38.47;22.88;;;;;;;11.44;98.12;99054.56;5108980;28;20028;-76
2023/04/18 06:39:51;;;;;;;46.42;24.50;;;;;;;11.53;96.27;99052.47;5093739;28;20505;-78
2023/04/18 06:42:16;;;;;;;46.70;25.60;;;;;;;11.45;97.06;99051.41;5102984;28;20027;-76
2023/04/18 06:44:42;;;;;;;38.28;24.77;;;;;;;11.46;96.12;99058.66;5094214;28;20504;-70
2023/04/18 06:47:08;;;;;;;38.95;25.52;;;;;;;11.56;95.53;99056.53;5074766;28;20030;-72
2023/04/18 06:49:34;;;;;;;45.78;23.08;;;;;;;11.71;94.32;99057.81;5105217;28;20482;-72
2023/04/18 06:51:59;;;;;;;42.40;24.73;;;;;;;11.75;93.13;99058.72;5094743;28;20034;-72
2023/04/18 06:54:25;;;;;;;45.15;25.92;;;;;;;11.68;94.25;99047.28;5092977;28;20084;-72
2023/04/18 06:56:52;;;;;;;47.50;27.23;;;;;;;11.76;95.51;99046.34;5104000;28;20063;-75
2023/04/18 06:59:20;;;;;;;41.17;25.50;;;;;;;11.93;94.11;99060.06;5083289;27;20472;-75
2023/04/18 07:01:46;;;;;;;47.03;28.55;;;;;;;11.91;93.71;99058.81;5106154;28;20028;-75
2023/04/18 07:04:11;;;;;;;41.28;25.08;;;;;;;11.99;93.67;99068.25;5108294;28;20023;-75
2023/04/18 07:06:37;;;;;;;41.58;24.13;;;;;;;12.09;91.64;99067.78;5112376;28;20020;-74
2023/04/18 07:09:02;;;;;;;39.42;24.65;;;;;;;11.92;92.45;99068.84;5109777;28;20028;-75
2023/04/18 07:11:28;;;;;;;41.95;24.38;;;;;;;12.11;91.71;99073.03;5103924;27;20040;-75
2023/04/18 07:13:54;;;;;;;41.88;24.75;;;;;;;12.24;90.02;99076.63;5110253;27;20035;-76
2023/04/18 07:16:19;;;;;;;38.75;22.52;;;;;;;12.25;89.54;99075.44;5105672;28;20020;-75
2023/04/18 07:18:45;;;;;;;44.42;25.30;;;;;;;12.22;90.35;99065.75;5093525;28;20031;-75
2023/04/18 07:21:10;;;;;;;39.58;23.90;;;;;;;12.35;90.18;99070.13;5104344;28;20032;-75
2023/04/18 07:23:36;;;;;;;40.38;23.08;;;;;;;12.36;89.25;99076.56;5094114;28;20016;-75
2023/04/18 07:26:04;;;;;;;44.90;24.75;;;;;;;12.44;89.34;99066.38;5098469;28;20026;-74
2023/04/18 07:28:31;;;;;;;43.17;25.20;;;;;;;12.62;88.97;99069.66;5079123;28;20464;-75
2023/04/18 07:30:58;;;;;;;37.85;24.33;;;;;;;12.58;89.40;99068.75;5093289;28;20047;-75
2023/04/18 07:33:24;;;;;;;42.22;22.02;;;;;;;12.44;89.66;99064.38;5112412;28;20028;-74
2023/04/18 07:35:51;;;;;;;40.75;24.23;;;;;;;12.59;88.18;99067.59;5112213;28;20034;-75
2023/04/18 07:38:17;;;;;;;40.55;25.25;;;;;;;12.67;88.42;99068.59;5109472;28;20483;-74
2023/04/18 07:40:44;;;;;;;42.92;26.02;;;;;;;12.79;89.36;99068.53;5095838;27;20035;-75
2023/04/18 07:43:09;;;;;;;36.13;24.05;;;;;;;12.64;88.14;99059.72;5091453;28;20012;-74
2023/04/18 07:45:37;;;;;;;37.88;22.92;;;;;;;12.68;88.78;99065.44;5093883;28;20024;-74
2023/04/18 07:48:03;;;;;;;42.28;25.70;;;;;;;12.81;90.62;99068.19;5085085;28;20024;-75
2023/04/18 07:50:29;;;;;;;43.33;25.73;;;;;;;12.98;87.72;99067.03;5102377;28;20027;-75
2023/04/18 07:52:54;;;;;;;42.75;23.90;;;;;;;13.12;86.68;99063.75;5093507;28;20027;-74
2023/04/18 07:55:20;;;;;;;42.92;24.27;;;;;;;13.20;86.94;99062.75;5111984;28;20459;-74
2023/04/18 07:57:49;;;;;;;40.05;22.15;;;;;;;13.10;88.02;99061.31;5099910;28;20031;-74
2023/04/18 08:00:18;;;;;;;32.88;22.08;;;;;;;13.16;85.66;99073.88;5100640;28;20023;-73
2023/04/18 08:02:44;;;;;;;38.40;22.65;;;;;;;13.34;84.82;99068.72;5108708;28;20436;-73
2023/04/18 08:05:09;;;;;;;35.28;21.45;;;;;;;13.24;84.59;99058.03;5091882;28;20028;-72
2023/04/18 08:07:35;;;;;;;35.83;20.13;;;;;;;12.84;83.28;99059.81;5084880;28;20032;-73
2023/04/18 08:10:01;;;;;;;33.38;20.23;;;;;;;13.13;83.56;99056.94;5109838;28;20446;-73
2023/04/18 08:12:26;;;;;;;31.05;20.08;;;;;;;13.42;82.96;99060.47;5091931;28;20050;-73
2023/04/18 08:14:52;;;;;;;39.20;22.10;;;;;;;13.82;83.73;99047.38;5093705;28;20020;-73
2023/04/18 08:17:17;;;;;;;32.40;20.48;;;;;;;14.26;79.92;99049.09;5111699;28;20050;-73
2023/04/18 08:19:44;;;;;;;35.20;21.50;;;;;;;13.82;80.96;99045.38;5112006;28;20027;-73
2023/04/18 08:22:10;;;;;;;35.88;22.30;;;;;;;13.48;83.43;99050.59;5105231;28;20395;-73
2023/04/18 08:24:40;;;;;;;33.45;20.55;;;;;;;13.24;81.82;99040.38;5103971;28;20031;-73
2023/04/18 08:27:05;;;;;;;37.83;25.48;;;;;;;13.71;83.71;99044.31;5110576;28;20578;-73
2023/04/18 08:29:31;;;;;;;37.85;23.08;;;;;;;14.09;80.80;99039.13;5099203;28;20027;-73
2023/04/18 08:31:57;;;;;;;31.38;20.95;;;;;;;14.08;81.04;99057.97;5106757;28;20081;-74
2023/04/18 08:34:23;;;;;;;33.15;23.30;;;;;;;14.11;80.84;99062.84;5111607;28;20031;-74
2023/04/18 08:36:49;;;;;;;36.28;22.77;;;;;;;14.04;82.62;99060.69;5111092;28;20144;-73
2023/04/18 08:39:15;;;;;;;33.38;22.10;;;;;;;14.13;81.25;99051.25;5087257;28;20138;-73
2023/04/18 08:41:42;;;;;;;30.05;20.67;;;;;;;13.93;79.06;99048.41;5096545;27;20098;-73
2023/04/18 08:44:07;;;;;;;29.85;21.13;;;;;;;13.86;80.50;99056.69;5107692;28;20066;-73
2023/04/18 08:46:34;;;;;;;33.75;21.92;;;;;;;13.68;81.55;99061.91;5096313;27;20098;-74
2023/04/18 08:49:03;;;;;;;37.50;23.02;;;;;;;13.65;81.10;99065.47;5084252;28;20055;-72
2023/04/18 08:51:32;;;;;;;33.05;22.80;;;;;;;13.87;80.43;99056.31;5096258;28;20551;-72
2023/04/18 08:54:03;;;;;;;37.13;22.33;;;;;;;13.80;81.23;99049.72;5102838;28;20038;-73
2023/04/18 08:56:30;;;;;;;36.60;24.20;;;;;;;13.14;83.14;99048.19;5096771;28;20032;-71
2023/04/18 08:58:58;;;;;;;30.58;20.75;;;;;;;13.38;82.46;99053.94;5081432;28;20410;-69
2023/04/18 09:01:51;;;;;;;31.55;23.17;;;;;;;13.73;82.88;99056.81;5093210;28;20043;-71
2023/04/18 09:04:43;;;;;;;34.88;22.10;;;;;;;14.28;80.16;99055.16;5093246;28;20019;-70
2023/04/18 09:07:10;;;;;;;28.90;20.15;;;;;;;14.10;79.34;99055.59;5076030;28;20410;-70
2023/04/18 09:09:49;;;;;;;31.60;20.48;;;;;;;14.14;78.10;99050.88;5076903;28;20032;-73
2023/04/18 09:12:18;;;;;;;27.90;19.80;;;;;;;14.36;77.37;99059.78;5111189;28;20048;-73
2023/04/18 09:14:49;;;;;;;30.98;20.70;;;;;;;14.18;79.23;99063.00;5105600;28;20506;-72
2023/04/18 09:17:34;;;;;;;31.50;18.80;;;;;;;14.06;78.04;99074.41;5101145;28;20020;-69
2023/04/18 09:20:04;;;;;;;26.52;18.58;;;;;;;14.03;78.87;99077.97;5087271;28;20050;-69
2023/04/18 09:22:46;;;;;;;27.63;18.55;;;;;;;14.13;76.79;99080.19;5086444;28;20582;-69
2023/04/18 09:25:33;;;;;;;25.75;18.42;;;;;;;13.99;76.77;99074.22;5108544;28;20035;-68
2023/04/18 09:28:00;;;;;;;33.22;20.52;;;;;;;13.92;78.00;99080.50;5096334;28;20027;-71
2023/04/18 09:30:36;;;;;;;32.53;21.02;;;;;;;13.98;78.98;99067.81;5087156;28;20028;-67
2023/04/18 09:33:04;;;;;;;31.83;20.10;;;;;;;13.93;79.83;99068.09;5087506;28;20046;-68
2023/04/18 09:35:30;;;;;;;29.50;20.65;;;;;;;14.07;78.85;99073.22;5101267;28;20491;-69
2023/04/18 09:37:55;;;;;;;28.65;19.88;;;;;;;14.03;77.57;99059.06;5090095;28;20080;-70
2023/04/18 09:40:22;;;;;;;30.33;21.15;;;;;;;14.13;78.25;99068.94;5102552;28;20425;-70
2023/04/18 09:42:50;;;;;;;29.05;19.55;;;;;;;13.86;80.20;99057.50;5106585;28;20521;-69
2023/04/18 09:45:16;;;;;;;33.63;20.50;;;;;;;13.81;80.40;99054.16;5102197;28;20034;-68
2023/04/18 09:47:41;;;;;;;30.48;19.50;;;;;;;13.77;81.29;99051.28;5081574;28;20028;-69
2023/04/18 09:50:09;;;;;;;28.52;20.23;;;;;;;13.89;81.05;99044.72;5091590;27;20032;-72
2023/04/18 09:52:39;;;;;;;28.77;20.38;;;;;;;13.96;78.52;99046.84;5111966;28;20019;-70
2023/04/18 09:55:10;;;;;;;30.80;20.20;;;;;;;13.98;79.03;99045.31;5098218;28;20071;-72
2023/04/18 09:57:40;;;;;;;35.42;21.02;;;;;;;14.22;77.94;99051.00;5096830;27;20032;-72
2023/04/18 10:00:26;;;;;;;33.05;21.00;;;;;;;14.36;78.05;99047.69;5095509;27;20510;-71
2023/04/18 10:03:04;;;;;;;26.42;18.40;;;;;;;14.27;77.11;99053.53;5080539;28;20028;-69
2023/04/18 10:05:35;;;;;;;37.85;21.05;;;;;;;14.28;79.23;99046.72;5099945;27;20121;-69
2023/04/18 10:08:01;;;;;;;33.72;20.45;;;;;;;14.17;79.39;99047.31;5103195;27;20483;-69
2023/04/18 10:10:28;;;;;;;34.72;21.85;;;;;;;14.20;78.60;99056.19;5087197;28;20057;-69
2023/04/18 10:12:55;;;;;;;31.92;20.67;;;;;;;14.32;78.09;99050.44;5085550;28;20058;-69
2023/04/18 10:15:23;;;;;;;27.83;19.08;;;;;;;14.35;76.83;99049.69;5093393;28;20028;-70
2023/04/18 10:18:13;;;;;;;33.05;19.95;;;;;;;14.26;76.60;99049.91;5100595;28;20028;-70
2023/04/18 10:20:40;;;;;;;29.93;19.83;;;;;;;14.34;76.85;99056.50;5095028;28;20040;-70
2023/04/18 10:23:30;;;;;;;26.52;19.90;;;;;;;14.30;75.10;99055.63;5114110;28;20401;-70
2023/04/18 10:25:56;;;;;;;27.48;19.27;;;;;;;14.15;77.23;99062.94;5114114;28;20062;-70
2023/04/18 10:28:23;;;;;;;32.17;21.38;;;;;;;13.92;79.34;99062.84;5114187;28;20111;-70
2023/04/18 10:30:51;;;;;;;29.15;21.58;;;;;;;13.76;80.11;99058.88;5113015;28;20023;-70
2023/04/18 10:33:22;;;;;;;37.92;22.85;;;;;;;13.80;81.60;99058.97;5099609;27;20035;-71
2023/04/18 10:36:04;;;;;;;40.03;22.27;;;;;;;13.66;83.43;99050.22;5075881;28;20063;-72
2023/04/18 10:38:30;;;;;;;40.40;21.67;;;;;;;13.78;83.61;99043.66;5091336;28;20024;-72
2023/04/18 10:41:17;;;;;;;32.80;22.60;;;;;;;13.56;86.49;99029.09;5086939;28;20036;-72
2023/04/18 10:44:04;;;;;;;38.13;23.48;;;;;;;13.72;88.26;99045.94;5095034;28;20456;-73
2023/04/18 10:46:30;;;;;;;36.00;23.63;;;;;;;13.62;89.20;99048.13;5094147;27;20107;-72
2023/04/18 10:49:19;;;;;;;38.45;22.77;;;;;;;13.79;88.53;99059.34;5097386;28;20411;-72
2023/04/18 10:51:46;;;;;;;40.08;24.13;;;;;;;13.73;87.65;99056.00;5104609;27;20027;-71
2023/04/18 10:54:21;;;;;;;41.47;24.52;;;;;;;13.72;88.20;99051.56;5095082;28;20027;-71
2023/04/18 10:56:54;;;;;;;43.13;26.85;;;;;;;13.72;88.60;99043.94;5094655;28;20020;-72
2023/04/18 10:59:22;;;;;;;52.67;30.55;;;;;;;13.69;90.67;99053.09;5085825;28;20108;-71
2023/04/18 11:01:53;;;;;;;66.35;39.15;;;;;;;13.53;91.08;99058.78;5090332;28;20099;-71
2023/04/18 11:04:18;;;;;;;;;;;;;;;13.27;91.50;99051.72;5084102;28;20016;-70
2023/04/18 11:06:56;;;;;;;41.75;27.13;;;;;;;13.46;91.79;99044.53;5096095;28;19993;-70
2023/04/18 11:09:22;;;;;;;49.35;28.38;;;;;;;13.38;92.90;99043.53;5102579;28;20403;-70
2023/04/18 11:12:05;;;;;;;37.30;23.45;;;;;;;13.37;91.74;99055.94;5099566;28;20044;-70
2023/04/18 11:14:46;;;;;;;35.75;22.13;;;;;;;13.36;92.96;99057.13;5101726;28;20020;-71